Time;durP1;ratioP1;P1;durP2;ratioP2;P2;SDS_P1;SDS_P2;PMS_P1;PMS_P2;Temp;Humidity;BMP_temperature;BMP_pressure;BME280_temperature;BME280_humidity;BME280_pressure;Samples;Min_cycle;Max_cycle;Signal;HPM_P1;HPM_P2
2021/11/24 00:00:23;;;;;;;14.60;8.02;;;;;;;4.49;50.67;101222.16;4388056;32;33018;-87
2021/11/24 00:02:52;;;;;;;13.40;7.85;;;;;;;4.32;50.53;101225.31;4388298;32;33869;-87
2021/11/24 00:05:20;;;;;;;13.25;8.02;;;;;;;4.27;50.49;101221.78;4388284;32;34001;-88
2021/11/24 00:07:48;;;;;;;14.90;8.55;;;;;;;3.78;51.96;101225.97;4388026;32;34065;-87
2021/11/24 00:10:18;;;;;;;14.50;9.90;;;;;;;4.07;51.08;101228.25;4388163;32;32860;-87
2021/11/24 00:12:47;;;;;;;16.98;8.43;;;;;;;4.09;50.88;101232.59;4375639;32;33990;-88
2021/11/24 00:15:15;;;;;;;15.18;8.80;;;;;;;3.94;51.55;101235.75;4375544;32;34099;-87
2021/11/24 00:17:43;;;;;;;14.10;9.23;;;;;;;4.05;51.24;101227.38;4387594;32;33995;-87
2021/11/24 00:20:13;;;;;;;15.05;8.60;;;;;;;3.72;52.08;101231.84;4375676;32;33568;-87
2021/11/24 00:22:43;;;;;;;14.90;9.02;;;;;;;3.86;51.42;101237.31;4388058;32;34150;-87
2021/11/24 00:25:11;;;;;;;16.92;10.07;;;;;;;3.98;51.40;101234.97;4375755;32;33139;-88
2021/11/24 00:27:39;;;;;;;13.85;8.93;;;;;;;3.26;53.52;101234.31;4375571;32;32843;-88
2021/11/24 00:30:09;;;;;;;14.45;8.93;;;;;;;3.69;52.61;101226.66;4375655;32;32647;-88
2021/11/24 00:32:37;;;;;;;15.27;8.65;;;;;;;3.86;51.99;101227.00;4375882;32;32799;-87
2021/11/24 00:35:06;;;;;;;13.62;8.68;;;;;;;3.66;52.17;101230.03;4388105;32;33923;-87
2021/11/24 00:37:35;;;;;;;15.55;8.45;;;;;;;3.42;52.74;101226.94;4387864;32;32818;-87
2021/11/24 00:40:06;;;;;;;15.13;8.60;;;;;;;3.43;52.71;101228.66;4375757;32;33766;-87
2021/11/24 00:42:36;;;;;;;14.73;8.48;;;;;;;3.46;52.62;101236.47;4375237;32;33638;-88
2021/11/24 00:45:04;;;;;;;17.52;10.55;;;;;;;3.48;52.37;101227.06;4375495;32;33836;-87
2021/11/24 00:47:32;;;;;;;17.33;10.00;;;;;;;3.67;51.99;101225.75;4363503;32;33876;-88
2021/11/24 00:50:02;;;;;;;16.70;10.93;;;;;;;3.57;52.14;101227.25;4375798;32;32823;-87
2021/11/24 00:52:30;;;;;;;19.92;12.25;;;;;;;3.70;51.69;101225.81;4363563;32;32999;-88
2021/11/24 00:54:58;;;;;;;19.55;12.73;;;;;;;3.88;51.25;101224.44;4363192;32;32895;-87
2021/11/24 00:57:27;;;;;;;22.58;12.95;;;;;;;3.53;52.16;101222.88;4375531;32;32644;-87
2021/11/24 00:59:55;;;;;;;21.48;12.77;;;;;;;3.27;52.85;101230.91;4375560;32;32531;-87
2021/11/24 01:02:23;;;;;;;20.45;12.18;;;;;;;3.24;52.89;101228.22;4363192;32;33141;-87
2021/11/24 01:04:52;;;;;;;19.98;12.40;;;;;;;3.08;53.70;101224.44;4363291;32;33089;-87
2021/11/24 01:07:20;;;;;;;19.92;10.95;;;;;;;3.18;53.62;101228.12;4362753;32;32963;-87
2021/11/24 01:09:51;;;;;;;18.50;10.27;;;;;;;3.21;53.34;101227.31;4363137;32;32502;-88
2021/11/24 01:12:21;;;;;;;18.25;10.60;;;;;;;3.34;52.45;101225.03;4375182;32;33418;-87
2021/11/24 01:14:50;;;;;;;17.12;10.52;;;;;;;3.38;52.57;101223.41;4363037;32;34022;-87
2021/11/24 01:17:18;;;;;;;15.10;9.35;;;;;;;3.27;52.88;101224.84;4362689;32;33406;-87
2021/11/24 01:19:48;;;;;;;17.33;10.50;;;;;;;3.66;52.38;101226.59;4375292;32;32274;-87
2021/11/24 01:22:16;;;;;;;18.20;9.70;;;;;;;2.90;54.02;101218.84;4362907;32;32747;-87
2021/11/24 01:24:44;;;;;;;17.02;10.35;;;;;;;2.98;54.10;101215.63;4387947;32;32865;-87
2021/11/24 01:27:12;;;;;;;15.32;8.88;;;;;;;3.20;53.41;101217.84;4363029;32;33278;-88
2021/11/24 01:29:40;;;;;;;15.90;8.70;;;;;;;3.36;52.91;101208.75;4374879;32;32219;-88
2021/11/24 01:32:07;;;;;;;13.52;8.50;;;;;;;3.27;52.92;101214.56;4387134;32;32683;-87
2021/11/24 01:34:37;;;;;;;16.50;9.27;;;;;;;2.70;53.84;101208.94;4387146;32;33275;-87
2021/11/24 01:37:05;;;;;;;15.35;8.90;;;;;;;3.19;52.78;101206.66;4374901;32;32642;-87
2021/11/24 01:39:33;;;;;;;14.30;9.20;;;;;;;3.38;52.28;101204.47;4374926;32;32508;-87
2021/11/24 01:42:02;;;;;;;14.35;9.88;;;;;;;3.27;52.50;101205.12;4387176;32;34349;-87
2021/11/24 01:44:30;;;;;;;17.12;9.13;;;;;;;3.11;53.43;101200.47;4375062;32;32874;-87
2021/11/24 01:47:00;;;;;;;16.25;9.50;;;;;;;3.11;53.48;101203.03;4374712;32;32798;-87
2021/11/24 01:49:29;;;;;;;14.05;9.15;;;;;;;3.15;53.16;101203.16;4387397;32;32800;-87
2021/11/24 01:51:58;;;;;;;13.20;8.50;;;;;;;3.12;53.10;101197.91;4374446;32;32771;-87
2021/11/24 01:54:27;;;;;;;15.63;9.32;;;;;;;3.10;53.16;101191.00;4387074;32;33018;-88
2021/11/24 01:56:56;;;;;;;14.48;8.63;;;;;;;3.15;52.91;101191.97;4387013;32;33832;-87
2021/11/24 01:59:24;;;;;;;14.45;8.05;;;;;;;3.03;53.04;101194.25;4366714;32;32363;-88
2021/11/24 02:01:53;;;;;;;16.12;8.55;;;;;;;2.63;54.11;101187.34;4378663;32;32486;-88
2021/11/24 02:04:22;;;;;;;14.98;8.77;;;;;;;2.49;54.60;101193.84;4389627;32;33026;-88
2021/11/24 02:06:51;;;;;;;13.47;8.13;;;;;;;3.01;53.03;101194.22;4389786;32;34463;-88
2021/11/24 02:09:20;;;;;;;14.23;8.37;;;;;;;2.39;54.53;101197.00;4389448;32;33516;-87
2021/11/24 02:11:49;;;;;;;12.45;7.70;;;;;;;2.79;53.97;101188.59;4388783;32;32952;-88
2021/11/24 02:14:18;;;;;;;12.90;8.00;;;;;;;2.82;53.61;101192.94;4388979;32;33823;-87
2021/11/24 02:16:51;;;;;;;13.10;7.57;;;;;;;2.58;54.07;101190.59;4376782;32;32411;-87
2021/11/24 02:19:22;;;;;;;12.73;7.45;;;;;;;2.54;54.41;101187.13;4390847;32;32172;-87
2021/11/24 02:21:52;;;;;;;12.30;7.27;;;;;;;2.73;54.03;101180.69;4390903;32;32830;-86
2021/11/24 02:24:22;;;;;;;12.43;7.35;;;;;;;2.97;53.13;101187.28;4391217;32;33046;-87
2021/11/24 02:26:52;;;;;;;15.03;7.43;;;;;;;2.94;53.11;101184.59;4391304;32;33231;-87
2021/11/24 02:29:20;;;;;;;14.43;7.43;;;;;;;2.72;53.96;101189.25;4391105;32;33220;-87
2021/11/24 02:31:49;;;;;;;11.93;7.00;;;;;;;2.55;54.34;101182.81;4391077;32;32867;-88
2021/11/24 02:34:19;;;;;;;12.35;7.53;;;;;;;2.34;55.14;101190.03;4391034;32;33874;-87
2021/11/24 02:36:47;;;;;;;11.87;6.63;;;;;;;2.82;53.80;101180.06;4379038;32;33047;-87
2021/11/24 02:39:16;;;;;;;13.47;7.10;;;;;;;2.49;54.90;101175.81;4378795;32;32091;-87
2021/11/24 02:41:44;;;;;;;11.33;7.27;;;;;;;2.57;54.70;101178.59;4391313;32;33876;-87
2021/11/24 02:44:23;;;;;;;12.00;7.60;;;;;;;2.58;54.29;101175.16;4391284;32;34783;-87
2021/11/24 02:46:53;;;;;;;12.87;7.77;;;;;;;2.38;54.23;101179.81;4391251;32;33238;-87
2021/11/24 02:49:21;;;;;;;13.47;7.40;;;;;;;2.33;54.75;101179.72;4379020;32;32516;-87
2021/11/24 02:51:49;;;;;;;12.73;7.53;;;;;;;2.54;53.91;101179.37;4378752;32;32867;-87
2021/11/24 02:54:17;;;;;;;13.83;7.93;;;;;;;2.47;53.93;101180.06;4379072;32;32927;-87
2021/11/24 02:56:45;;;;;;;12.67;8.47;;;;;;;2.42;54.32;101176.47;4391196;32;32720;-87
2021/11/24 02:59:13;;;;;;;10.63;6.50;;;;;;;2.41;54.35;101183.34;4378962;32;33232;-87
2021/11/24 03:01:42;;;;;;;15.75;7.45;;;;;;;2.47;55.19;101177.47;4391780;32;32795;-88
2021/11/24 03:04:10;;;;;;;10.65;6.85;;;;;;;2.59;55.42;101176.91;4367256;32;33487;-87
2021/11/24 03:06:38;;;;;;;12.85;7.45;;;;;;;2.40;56.15;101176.44;4391660;32;32825;-87
2021/11/24 03:09:07;;;;;;;13.60;8.17;;;;;;;2.81;55.13;101175.75;4391887;32;33127;-88
2021/11/24 03:11:36;;;;;;;10.87;6.43;;;;;;;2.47;55.55;101170.66;4391493;32;32988;-88
2021/11/24 03:14:05;;;;;;;12.73;7.28;;;;;;;2.52;55.67;101175.91;4379401;32;33096;-87
2021/11/24 03:16:34;;;;;;;20.30;7.70;;;;;;;2.25;57.22;101179.50;4379060;32;32896;-87
2021/11/24 03:19:02;;;;;;;13.10;7.30;;;;;;;2.53;56.02;101166.47;4391268;32;33398;-87
2021/11/24 03:21:30;;;;;;;12.10;7.50;;;;;;;2.53;56.53;101166.47;4378532;32;32683;-88
2021/11/24 03:23:58;;;;;;;12.93;7.33;;;;;;;2.38;56.88;101173.00;4391164;32;33135;-87
2021/11/24 03:26:26;;;;;;;15.43;7.82;;;;;;;2.33;57.25;101184.84;4379090;32;34109;-87
2021/11/24 03:28:54;;;;;;;11.90;6.90;;;;;;;2.38;55.64;101180.72;4378715;32;32581;-87
2021/11/24 03:31:23;;;;;;;12.60;7.60;;;;;;;2.50;54.27;101175.84;4390909;32;32842;-87
2021/11/24 03:33:51;;;;;;;11.77;6.67;;;;;;;2.46;53.70;101180.88;4391229;32;33168;-87
2021/11/24 03:36:19;;;;;;;10.77;6.30;;;;;;;2.88;52.65;101174.19;4390956;32;33931;-88
2021/11/24 03:38:49;;;;;;;14.67;7.33;;;;;;;2.93;52.78;101178.59;4390791;32;33255;-87
2021/11/24 03:41:17;;;;;;;13.77;6.77;;;;;;;2.64;53.75;101177.91;4378626;32;32992;-87
2021/11/24 03:43:47;;;;;;;12.37;6.03;;;;;;;2.57;54.15;101170.88;4378449;32;33158;-87
2021/11/24 03:46:16;;;;;;;12.00;5.77;;;;;;;2.51;55.22;101169.00;4378385;32;32642;-87
2021/11/24 03:48:44;;;;;;;10.83;5.90;;;;;;;2.21;54.63;101177.69;4390652;32;33289;-87
2021/11/24 03:51:12;;;;;;;11.37;5.90;;;;;;;2.40;54.19;101167.88;4391279;32;34255;-87
2021/11/24 03:53:41;;;;;;;12.73;6.33;;;;;;;2.19;54.89;101168.19;4378496;32;33037;-87
2021/11/24 03:56:11;;;;;;;11.10;5.63;;;;;;;1.87;55.87;101168.19;4378341;32;33365;-87
2021/11/24 03:58:39;;;;;;;11.10;6.67;;;;;;;2.04;55.52;101171.22;4378285;32;32639;-87
2021/11/24 04:01:08;;;;;;;13.53;6.73;;;;;;;2.25;55.23;101176.94;4378232;32;32636;-87
2021/11/24 04:03:37;;;;;;;14.90;7.03;;;;;;;2.29;54.81;101176.19;4390635;32;33875;-88
2021/11/24 04:06:06;;;;;;;9.33;5.87;;;;;;;2.25;54.69;101179.50;4378294;32;32956;-87
2021/11/24 04:08:33;;;;;;;11.50;5.57;;;;;;;2.28;54.36;101171.88;4378500;32;32165;-87
2021/11/24 04:11:04;;;;;;;11.50;5.90;;;;;;;2.36;53.43;101177.22;4390796;32;33354;-87
2021/11/24 04:13:32;;;;;;;11.70;6.63;;;;;;;1.86;55.16;101185.28;4390520;32;33048;-88
2021/11/24 04:16:00;;;;;;;11.57;6.23;;;;;;;2.23;54.05;101188.00;4390621;32;33154;-87
2021/11/24 04:18:29;;;;;;;10.53;6.17;;;;;;;2.24;54.34;101193.19;4390296;32;32288;-87
2021/11/24 04:20:57;;;;;;;11.77;5.93;;;;;;;2.26;54.07;101188.97;4390462;32;33545;-87
2021/11/24 04:23:25;;;;;;;11.50;6.77;;;;;;;2.47;53.55;101180.94;4378095;32;33198;-88
2021/11/24 04:25:54;;;;;;;12.17;6.30;;;;;;;2.32;53.68;101181.41;4389993;32;33825;-87
2021/11/24 04:28:22;;;;;;;13.00;6.83;;;;;;;2.37;53.66;101180.62;4390672;32;32496;-87
2021/11/24 04:30:51;;;;;;;13.73;6.70;;;;;;;2.05;54.80;101178.97;4390398;32;33063;-88
2021/11/24 04:33:20;;;;;;;10.47;6.53;;;;;;;1.94;54.80;101186.41;4390442;32;33539;-88
2021/11/24 04:35:48;;;;;;;10.10;5.83;;;;;;;1.87;55.46;101183.63;4390523;32;32438;-87
2021/11/24 04:38:16;;;;;;;9.73;5.70;;;;;;;1.90;55.32;101191.41;4390699;32;32946;-87
2021/11/24 04:40:44;;;;;;;18.07;6.10;;;;;;;2.30;54.27;101189.91;4390503;32;33328;-87
2021/11/24 04:43:14;;;;;;;15.10;5.77;;;;;;;2.60;52.64;101191.53;4390487;32;33029;-89
2021/11/24 04:45:42;;;;;;;13.57;6.60;;;;;;;2.34;52.59;101187.47;4377896;32;33833;-87
2021/11/24 04:48:11;;;;;;;9.03;5.27;;;;;;;2.15;52.88;101187.81;4390586;32;32565;-88
2021/11/24 04:50:39;;;;;;;9.57;5.77;;;;;;;1.94;53.13;101194.13;4377899;32;32306;-87
2021/11/24 04:53:07;;;;;;;10.43;5.70;;;;;;;1.70;53.68;101203.69;4390325;32;33739;-88
2021/11/24 04:55:36;;;;;;;12.67;6.30;;;;;;;1.53;54.43;101200.63;4390446;32;32773;-87
2021/11/24 04:58:04;;;;;;;13.13;6.17;;;;;;;1.42;55.38;101197.75;4378111;32;32439;-87
2021/11/24 05:00:32;;;;;;;14.67;6.77;;;;;;;1.62;54.91;101196.66;4390424;32;32494;-87
2021/11/24 05:03:01;;;;;;;16.77;6.93;;;;;;;1.66;54.88;101198.47;4390749;32;33058;-87
2021/11/24 05:05:30;;;;;;;18.27;7.20;;;;;;;1.95;54.23;101195.84;4378379;32;33040;-87
2021/11/24 05:07:58;;;;;;;14.13;7.17;;;;;;;1.65;54.36;101191.59;4377960;32;32582;-87
2021/11/24 05:10:27;;;;;;;14.00;6.90;;;;;;;1.98;53.42;101195.94;4378184;32;32789;-87
2021/11/24 05:12:56;;;;;;;9.47;5.17;;;;;;;2.02;52.81;101196.88;4378033;32;32875;-87
2021/11/24 05:15:28;;;;;;;9.13;5.77;;;;;;;1.87;52.77;101201.59;4390308;32;32826;-87
2021/11/24 05:18:03;;;;;;;12.20;5.40;;;;;;;1.36;54.19;101200.13;4389644;32;32323;-87
2021/11/24 05:20:33;;;;;;;15.53;5.83;;;;;;;1.58;53.51;101197.38;4377915;32;32927;-86
2021/11/24 05:23:07;;;;;;;11.53;5.73;;;;;;;1.05;55.40;101196.63;4365650;32;33611;-87
2021/11/24 05:25:36;;;;;;;12.57;6.40;;;;;;;1.63;53.88;101198.38;4389649;32;33230;-87
2021/11/24 05:28:04;;;;;;;13.73;6.23;;;;;;;1.33;55.18;101208.62;4390075;32;32770;-87
2021/11/24 05:30:32;;;;;;;11.90;6.57;;;;;;;1.56;55.04;101199.03;4377581;32;34070;-87
2021/11/24 05:33:00;;;;;;;14.60;6.93;;;;;;;1.58;54.98;101199.97;4390007;32;33832;-87
2021/11/24 05:35:29;;;;;;;14.47;6.47;;;;;;;1.44;56.20;101196.97;4377959;32;32487;-87
2021/11/24 05:37:57;;;;;;;12.80;6.30;;;;;;;1.47;55.89;101191.91;4390922;32;32823;-87
2021/11/24 05:40:25;;;;;;;9.87;5.30;;;;;;;1.22;55.17;101197.16;4391901;32;32663;-88
2021/11/24 05:42:54;;;;;;;15.37;6.03;;;;;;;1.53;53.55;101191.25;4379226;32;32968;-87
2021/11/24 05:48:18;;;;;;;16.77;5.80;;;;;;;1.50;54.29;101197.16;4367581;32;32480;-85
2021/11/24 05:50:48;;;;;;;14.10;6.27;;;;;;;1.00;55.96;101202.47;4391497;32;33716;-86
2021/11/24 05:53:19;;;;;;;13.90;5.97;;;;;;;1.05;55.77;101206.87;4381302;32;34505;-87
2021/11/24 05:55:48;;;;;;;15.70;7.13;;;;;;;1.31;55.35;101208.56;4378840;32;33499;-87
2021/11/24 05:58:21;;;;;;;15.13;6.50;;;;;;;1.36;55.59;101215.53;4367358;32;32783;-87
2021/11/24 06:00:50;;;;;;;16.57;6.47;;;;;;;1.60;55.15;101218.84;4379007;32;32922;-87
2021/11/24 06:03:20;;;;;;;12.20;6.27;;;;;;;1.67;54.24;101210.50;4403849;32;33226;-87
2021/11/24 06:05:49;;;;;;;10.20;5.67;;;;;;;1.86;52.85;101218.72;4378997;32;34145;-87
2021/11/24 06:08:18;;;;;;;18.47;7.93;;;;;;;1.27;53.83;101216.13;4391303;32;32476;-87
2021/11/24 06:10:47;;;;;;;14.00;7.60;;;;;;;1.27;54.18;101211.00;4391067;32;32960;-88
2021/11/24 06:13:16;;;;;;;17.40;8.63;;;;;;;1.55;54.00;101214.41;4378838;32;33982;-86
2021/11/24 06:15:44;;;;;;;19.73;9.03;;;;;;;1.26;54.79;101220.37;4391478;32;33115;-87
2021/11/24 06:18:14;;;;;;;19.20;8.90;;;;;;;1.04;55.68;101225.66;4390795;32;32672;-86
2021/11/24 06:20:42;;;;;;;20.87;8.73;;;;;;;1.32;55.07;101222.28;4403976;32;33788;-86
2021/11/24 06:23:10;;;;;;;22.63;8.50;;;;;;;1.31;56.11;101225.69;4366259;32;33610;-87
2021/11/24 06:25:39;;;;;;;19.13;7.67;;;;;;;1.36;55.42;101236.06;4378882;32;33747;-89
2021/11/24 06:28:12;;;;;;;17.00;8.27;;;;;;;1.50;54.89;101233.13;4378971;32;33134;-87
2021/11/24 06:30:42;;;;;;;12.63;7.33;;;;;;;1.63;54.36;101229.19;4379104;32;33379;-86
2021/11/24 06:33:11;;;;;;;12.87;6.40;;;;;;;1.35;55.87;101236.91;4378365;32;33494;-84
2021/11/24 06:35:40;;;;;;;16.03;8.17;;;;;;;1.50;56.12;101242.50;4365631;32;33621;-85
2021/11/24 06:38:10;;;;;;;15.83;6.87;;;;;;;1.77;55.44;101241.56;4377553;32;32320;-85
2021/11/24 06:40:38;;;;;;;16.93;8.00;;;;;;;1.87;54.79;101242.72;4377792;32;32890;-84
2021/11/24 06:43:06;;;;;;;12.67;7.30;;;;;;;1.87;54.86;101243.59;4377677;32;34758;-85
2021/11/24 06:45:35;;;;;;;19.27;8.20;;;;;;;1.97;54.50;101240.47;4365909;32;33773;-85
2021/11/24 06:48:04;;;;;;;13.03;7.77;;;;;;;2.29;54.14;101243.06;4365593;32;33899;-89
2021/11/24 06:50:37;;;;;;;14.97;7.13;;;;;;;2.11;54.35;101238.25;4364779;32;32910;-87
2021/11/24 06:53:06;;;;;;;13.30;7.40;;;;;;;2.43;53.38;101242.56;4405048;32;33201;-85
2021/11/24 06:55:34;;;;;;;14.77;7.60;;;;;;;2.58;53.34;101244.66;4368098;32;33956;-86
2021/11/24 06:58:05;;;;;;;14.13;7.53;;;;;;;2.69;52.91;101248.38;4368371;32;32410;-85
2021/11/24 07:00:34;;;;;;;15.73;8.30;;;;;;;2.70;52.95;101242.41;4382197;32;32986;-89
2021/11/24 07:03:14;;;;;;;13.80;8.45;;;;;;;3.07;51.77;101245.88;4368049;32;33460;-85
2021/11/24 07:05:43;;;;;;;18.73;10.70;;;;;;;2.66;53.21;101243.16;4393460;32;33571;-85
2021/11/24 07:08:11;;;;;;;14.87;8.88;;;;;;;2.76;52.96;101250.25;4381255;32;32997;-85
2021/11/24 07:10:38;;;;;;;17.45;9.73;;;;;;;3.20;51.91;101248.75;4369168;32;32598;-85
2021/11/24 07:13:06;;;;;;;15.90;8.70;;;;;;;3.11;52.20;101246.81;4381094;32;34795;-84
2021/11/24 07:15:34;;;;;;;19.30;9.60;;;;;;;3.10;52.55;101240.81;4380704;32;34648;-87
2021/11/24 07:18:02;;;;;;;18.80;8.60;;;;;;;3.28;52.08;101247.22;4381152;32;33655;-85
2021/11/24 07:20:30;;;;;;;18.15;9.48;;;;;;;2.87;53.61;101253.09;4380819;32;33966;-85
2021/11/24 07:22:58;;;;;;;16.42;8.80;;;;;;;2.86;54.30;101251.38;4393114;32;33063;-86
2021/11/24 07:25:29;;;;;;;23.87;10.52;;;;;;;3.41;53.40;101250.94;4396383;32;33878;-88
2021/11/24 07:27:58;;;;;;;27.48;11.02;;;;;;;3.55;53.06;101249.56;4378597;32;33292;-89
2021/11/24 07:30:28;;;;;;;22.73;11.50;;;;;;;3.63;52.90;101244.53;4361022;32;32999;-87
2021/11/24 07:32:56;;;;;;;19.65;10.20;;;;;;;3.75;53.01;101243.94;4366609;32;33697;-87
2021/11/24 07:35:26;;;;;;;24.00;11.35;;;;;;;3.62;53.59;101240.25;4377901;32;33734;-86
2021/11/24 07:37:54;;;;;;;210.13;39.60;;;;;;;3.87;53.19;101240.75;4391205;32;33400;-87
2021/11/24 07:40:22;;;;;;;21.42;13.93;;;;;;;4.18;52.50;101239.66;4385792;32;34848;-87
2021/11/24 07:42:50;;;;;;;25.20;14.10;;;;;;;4.38;51.97;101241.75;4364443;32;34104;-88
2021/11/24 07:45:18;;;;;;;17.48;10.73;;;;;;;4.63;51.46;101232.75;4347847;32;34731;-88
2021/11/24 07:47:46;;;;;;;19.87;9.38;;;;;;;4.65;51.54;101236.22;4360158;32;32719;-89
2021/11/24 07:50:15;;;;;;;23.40;10.85;;;;;;;4.72;51.75;101235.50;4367340;32;34064;-88
2021/11/24 07:52:43;;;;;;;23.33;11.27;;;;;;;4.57;52.61;101246.38;4347838;32;34333;-87
2021/11/24 07:55:11;;;;;;;18.77;9.70;;;;;;;5.05;51.45;101231.69;4351150;32;34427;-85
2021/11/24 07:57:38;;;;;;;18.45;8.45;;;;;;;5.13;51.23;101222.38;4358562;32;34314;-88
2021/11/24 08:00:08;;;;;;;15.57;7.60;;;;;;;5.16;51.74;101229.31;4362755;32;33907;-89
2021/11/24 08:02:40;;;;;;;25.23;16.15;;;;;;;5.32;51.46;101231.25;4381301;32;33476;-88
2021/11/24 08:05:10;;;;;;;57.13;32.17;;;;;;;5.62;50.58;101229.94;4389946;32;33841;-88
2021/11/24 08:07:53;;;;;;;26.05;13.98;;;;;;;6.00;49.46;101234.75;4377025;32;33173;-89
2021/11/24 08:10:23;;;;;;;24.48;10.30;;;;;;;6.22;48.78;101231.53;4389595;32;33589;-89
2021/11/24 08:12:54;;;;;;;28.60;16.05;;;;;;;6.06;49.06;101235.69;4366135;32;33175;-87
2021/11/24 08:15:22;;;;;;;24.55;12.50;;;;;;;6.42;48.47;101226.56;4377778;32;34128;-87
2021/11/24 08:17:50;;;;;;;21.73;10.13;;;;;;;6.48;48.58;101231.81;4365506;32;32447;-87
2021/11/24 08:20:18;;;;;;;25.15;13.13;;;;;;;6.48;48.38;101226.66;4377457;32;34794;-88
2021/11/24 08:22:46;;;;;;;18.80;9.77;;;;;;;6.81;47.84;101228.66;4378012;32;35091;-88
2021/11/24 08:25:15;;;;;;;17.52;9.75;;;;;;;6.62;48.22;101227.66;4377507;32;33278;-88
2021/11/24 08:27:42;;;;;;;18.45;10.93;;;;;;;6.54;48.94;101234.44;4377592;32;33904;-88
2021/11/24 08:30:11;;;;;;;19.67;9.75;;;;;;;6.67;48.83;101231.16;4365500;32;34991;-87
2021/11/24 08:32:39;;;;;;;18.95;10.52;;;;;;;6.80;48.50;101223.47;4377873;32;33963;-88
2021/11/24 08:35:07;;;;;;;16.42;10.18;;;;;;;7.45;46.38;101224.78;4377563;32;34451;-87
2021/11/24 08:37:35;;;;;;;20.98;11.02;;;;;;;7.73;45.53;101221.47;4389396;32;34142;-87
2021/11/24 08:40:04;;;;;;;20.02;10.70;;;;;;;7.84;45.42;101227.56;4401657;32;33134;-87
2021/11/24 08:42:33;;;;;;;18.10;10.82;;;;;;;8.22;44.35;101228.56;4384549;32;242031;-88
2021/11/24 08:45:03;;;;;;;20.27;11.57;;;;;;;8.25;44.20;101229.44;4365333;32;33407;-88
2021/11/24 08:47:30;;;;;;;21.30;12.48;;;;;;;8.05;44.97;101226.78;4386609;32;34127;-86
2021/11/24 08:49:59;;;;;;;19.90;12.00;;;;;;;7.94;45.72;101223.31;4349851;32;33822;-88
2021/11/24 08:52:27;;;;;;;24.52;13.43;;;;;;;8.11;45.19;101223.34;4362645;32;34013;-87
2021/11/24 08:54:55;;;;;;;22.77;13.00;;;;;;;8.18;45.36;101223.34;4338110;32;33250;-88
2021/11/24 08:57:23;;;;;;;23.95;13.62;;;;;;;8.02;45.53;101224.19;4350491;32;33679;-89
2021/11/24 08:59:52;;;;;;;19.42;12.40;;;;;;;8.27;45.30;101222.53;4362710;32;33778;-88
2021/11/24 09:02:24;;;;;;;22.95;13.50;;;;;;;8.17;45.76;101218.16;4362482;32;34652;-88
2021/11/24 09:04:53;;;;;;;21.33;13.38;;;;;;;8.38;45.24;101221.69;4386761;32;34023;-89
2021/11/24 09:07:21;;;;;;;20.27;12.90;;;;;;;8.42;44.77;101219.09;4339074;32;32995;-88
2021/11/24 09:09:49;;;;;;;17.23;12.00;;;;;;;8.57;44.24;101207.88;4389026;32;33435;-87
2021/11/24 09:12:18;;;;;;;22.87;12.50;;;;;;;8.41;44.55;101204.34;4377465;32;33752;-89
2021/11/24 09:14:45;;;;;;;20.92;12.32;;;;;;;8.64;44.37;101207.03;4367295;32;33216;-89
2021/11/24 09:17:13;;;;;;;19.15;11.27;;;;;;;8.97;42.99;101210.47;4370052;32;32486;-88
2021/11/24 09:19:45;;;;;;;17.67;11.45;;;;;;;8.57;43.16;101207.88;4381277;32;33666;-89
2021/11/24 09:22:33;;;;;;;21.27;10.90;;;;;;;8.73;42.37;101200.09;4381728;32;33240;-89
2021/11/24 09:25:02;;;;;;;17.55;10.85;;;;;;;9.31;41.45;101193.97;4379552;32;33580;-89
2021/11/24 09:27:32;;;;;;;21.12;12.50;;;;;;;9.53;41.24;101199.94;4366213;32;33259;-90
2021/11/24 09:30:11;;;;;;;20.15;12.52;;;;;;;9.28;42.17;101196.56;4390999;32;34597;-89
2021/11/24 09:32:41;;;;;;;19.35;11.57;;;;;;;9.41;41.92;101198.25;4349954;32;34169;-90
2021/11/24 09:35:12;;;;;;;17.98;11.75;;;;;;;9.74;41.28;101191.19;4350099;32;33392;-90
2021/11/24 09:37:39;;;;;;;24.63;13.95;;;;;;;9.77;41.05;101183.41;4401897;32;33138;-89
2021/11/24 09:40:09;;;;;;;25.42;12.95;;;;;;;9.85;40.60;101186.84;4389612;32;32582;-89
2021/11/24 09:42:44;;;;;;;22.50;13.75;;;;;;;10.16;40.23;101186.66;4389812;32;33055;-90
2021/11/24 09:45:15;;;;;;;20.00;13.25;;;;;;;9.98;40.72;101186.75;4376699;32;34225;-87
2021/11/24 09:47:47;;;;;;;21.15;13.05;;;;;;;9.88;40.85;101185.94;4388432;32;32513;-91
2021/11/24 09:50:22;;;;;;;19.15;13.23;;;;;;;10.29;40.03;101192.66;4373480;32;33321;-89
2021/11/24 09:52:55;;;;;;;24.10;13.57;;;;;;;10.62;39.37;101185.50;4355603;32;33293;-88
2021/11/24 09:55:27;;;;;;;19.85;13.13;;;;;;;10.78;38.95;101172.31;4386645;32;33186;-88
2021/11/24 09:58:00;;;;;;;20.95;13.23;;;;;;;10.87;38.90;101174.84;4350690;32;32867;-89
2021/11/24 10:00:29;;;;;;;21.90;15.20;;;;;;;10.67;39.18;101173.28;4350772;32;33436;-91
2021/11/24 10:03:02;;;;;;;22.60;14.00;;;;;;;10.42;39.80;101167.41;4360653;32;34109;-90
2021/11/24 10:05:33;;;;;;;24.00;14.13;;;;;;;10.79;38.96;101161.03;4373366;32;34173;-87
2021/11/24 10:08:03;;;;;;;;;;;;;;;10.78;38.74;101159.28;4372551;32;33376;-88
2021/11/24 10:10:31;;;;;;;23.80;14.57;;;;;;;11.02;38.17;101156.47;4372797;32;32570;-87
2021/11/24 10:12:59;;;;;;;27.77;14.93;;;;;;;11.44;37.57;101160.38;4348785;32;33769;-89
2021/11/24 10:15:41;;;;;;;24.55;14.77;;;;;;;11.16;38.07;101156.31;4338058;32;34097;-88
2021/11/24 10:18:29;;;;;;;24.27;14.80;;;;;;;11.48;37.41;101151.63;4372960;32;34575;-89
2021/11/24 10:21:09;;;;;;;23.75;15.27;;;;;;;11.27;37.84;101148.34;4376949;32;33605;-89
2021/11/24 10:23:41;;;;;;;21.48;14.52;;;;;;;11.43;37.58;101141.22;4376885;32;33994;-88
2021/11/24 10:26:15;;;;;;;20.92;14.43;;;;;;;11.30;37.56;101143.13;4390456;32;33567;-87
2021/11/24 10:29:06;;;;;;;22.77;15.15;;;;;;;11.07;38.08;101145.97;4388303;32;33104;-88
2021/11/24 10:31:42;;;;;;;23.42;15.35;;;;;;;11.72;36.87;101134.75;4388119;32;33958;-88
2021/11/24 10:34:19;;;;;;;27.80;16.12;;;;;;;11.55;37.50;101134.97;4375752;32;33909;-89
2021/11/24 10:37:05;;;;;;;21.50;15.27;;;;;;;12.03;36.36;101126.53;4376187;32;33273;-89
2021/11/24 10:39:40;;;;;;;24.25;15.70;;;;;;;11.77;36.54;101129.50;4375930;32;32610;-90
2021/11/24 10:42:31;;;;;;;;;;;;;;;11.86;36.45;101124.16;4401043;32;33606;-88
2021/11/24 10:45:05;;;;;;;25.90;15.20;;;;;;;12.43;35.47;101118.09;4383915;32;33890;-88
2021/11/24 10:47:34;;;;;;;25.30;16.05;;;;;;;12.13;35.76;101120.28;4377045;32;33039;-89
2021/11/24 10:50:04;;;;;;;27.00;15.73;;;;;;;12.16;35.70;101115.00;4376129;32;33556;-88
2021/11/24 10:52:37;;;;;;;22.98;16.37;;;;;;;12.10;35.79;101114.22;4381593;32;32822;-88
2021/11/24 10:55:14;;;;;;;23.37;16.13;;;;;;;12.43;35.20;101102.41;4382837;32;32966;-86
2021/11/24 10:57:59;;;;;;;24.70;17.35;;;;;;;12.56;34.87;101102.19;4390782;32;33497;-87
2021/11/24 11:00:45;;;;;;;25.85;17.33;;;;;;;12.43;35.24;101096.28;4380498;32;34318;-89
2021/11/24 11:03:41;;;;;;;24.02;16.92;;;;;;;12.78;34.70;101100.06;4398303;32;33738;-89
2021/11/24 11:06:25;;;;;;;27.90;18.67;;;;;;;12.82;34.46;101096.50;4375655;32;33697;-89
2021/11/24 11:08:58;;;;;;;32.42;18.92;;;;;;;12.93;34.60;101096.28;4391840;32;33091;-88
2021/11/24 11:11:31;;;;;;;29.25;18.40;;;;;;;13.39;33.68;101084.03;4400750;32;33800;-88
2021/11/24 11:14:21;;;;;;;27.05;17.65;;;;;;;13.39;33.62;101089.28;4379400;32;33191;-87
2021/11/24 11:16:53;;;;;;;28.80;19.48;;;;;;;13.31;33.75;101085.03;4383085;32;33458;-90
2021/11/24 11:19:43;;;;;;;26.85;18.95;;;;;;;13.50;33.30;101079.44;4387891;32;33630;-89
2021/11/24 11:22:15;;;;;;;29.75;19.15;;;;;;;13.68;33.06;101081.66;4356486;32;32832;-89
2021/11/24 11:24:44;;;;;;;27.65;19.37;;;;;;;13.54;33.23;101075.88;4364874;32;33710;-89
2021/11/24 11:27:15;;;;;;;28.87;18.98;;;;;;;13.92;32.51;101081.13;4338803;32;33492;-90
2021/11/24 11:29:43;;;;;;;28.10;19.30;;;;;;;13.82;32.54;101078.72;4349927;32;33510;-89
2021/11/24 11:32:15;;;;;;;29.87;19.27;;;;;;;13.82;32.52;101080.50;4373034;32;33904;-89
2021/11/24 11:34:43;;;;;;;27.73;19.75;;;;;;;13.88;32.42;101074.25;4363656;32;33864;-89
2021/11/24 11:37:18;;;;;;;27.55;20.60;;;;;;;13.80;32.55;101070.06;4388274;32;33971;-88